createdAt,value
2018-07-25T00:01:49.899Z,9.30
2018-07-25T00:04:18.273Z,8.87
2018-07-25T00:06:46.662Z,8.53
2018-07-25T00:09:15.029Z,9.20
2018-07-25T00:11:43.472Z,9.23
2018-07-25T00:14:11.834Z,8.90
2018-07-25T00:16:40.226Z,8.70
2018-07-25T00:19:08.622Z,9.13
2018-07-25T00:21:37.030Z,8.33
2018-07-25T00:24:05.405Z,9.20
2018-07-25T00:26:33.817Z,9.43
2018-07-25T00:29:02.196Z,8.40
2018-07-25T00:31:30.586Z,7.33
2018-07-25T00:33:58.963Z,7.73
2018-07-25T00:36:27.362Z,9.27
2018-07-25T00:38:55.726Z,8.07
2018-07-25T00:41:24.125Z,8.30
2018-07-25T00:43:52.499Z,8.10
2018-07-25T00:46:20.915Z,8.83
2018-07-25T00:48:49.289Z,8.07
2018-07-25T00:51:17.682Z,7.53
2018-07-25T00:53:46.053Z,7.70
2018-07-25T00:56:14.454Z,8.07
2018-07-25T00:58:42.825Z,9.10
2018-07-25T01:01:11.217Z,7.50
2018-07-25T01:03:39.582Z,8.23
2018-07-25T01:06:07.978Z,8.47
2018-07-25T01:08:36.358Z,7.87
2018-07-25T01:11:04.763Z,8.50
2018-07-25T01:13:33.141Z,7.20
2018-07-25T01:16:01.511Z,7.40
2018-07-25T01:18:29.906Z,8.00
2018-07-25T01:20:58.311Z,8.30
2018-07-25T01:23:26.731Z,7.57
2018-07-25T01:25:55.110Z,8.90
2018-07-25T01:28:23.506Z,9.23
2018-07-25T01:30:51.887Z,9.90
2018-07-25T01:33:20.331Z,8.57
2018-07-25T01:35:48.714Z,10.87
2018-07-25T01:38:17.118Z,9.80
2018-07-25T01:40:45.493Z,11.10
2018-07-25T01:43:14.038Z,11.10
2018-07-25T01:45:42.422Z,10.47
2018-07-25T01:48:10.905Z,11.00
2018-07-25T01:50:39.340Z,12.20
2018-07-25T01:53:07.738Z,12.93
2018-07-25T01:55:36.120Z,12.37
2018-07-25T01:58:04.538Z,11.23
2018-07-25T02:00:32.922Z,11.37
2018-07-25T02:03:01.332Z,12.17
2018-07-25T02:05:29.711Z,12.10
2018-07-25T02:07:58.114Z,12.10
2018-07-25T02:10:26.495Z,10.03
2018-07-25T02:12:54.947Z,11.00
2018-07-25T02:15:23.321Z,11.40
2018-07-25T02:17:51.786Z,12.67
2018-07-25T02:20:20.188Z,11.67
2018-07-25T02:22:48.584Z,12.80
2018-07-25T02:25:16.962Z,12.40
2018-07-25T02:27:45.366Z,12.37
2018-07-25T02:30:13.759Z,12.30
2018-07-25T02:32:42.154Z,10.47
2018-07-25T02:35:10.542Z,11.43
2018-07-25T02:37:38.946Z,10.20
2018-07-25T02:40:07.327Z,10.13
2018-07-25T02:42:35.816Z,9.87
2018-07-25T02:45:04.173Z,10.67
2018-07-25T02:47:32.582Z,10.60
2018-07-25T02:50:00.970Z,10.20
2018-07-25T02:52:29.394Z,11.00
2018-07-25T02:54:57.779Z,10.27
2018-07-25T02:57:26.181Z,10.40
2018-07-25T02:59:54.559Z,8.53
2018-07-25T03:02:22.963Z,9.97
2018-07-25T03:04:51.372Z,8.60
2018-07-25T03:07:19.774Z,8.40
2018-07-25T03:09:48.154Z,10.10
2018-07-25T03:12:16.585Z,9.40
2018-07-25T03:14:44.992Z,7.87
2018-07-25T03:17:13.427Z,9.30
2018-07-25T03:19:41.852Z,8.00
2018-07-25T03:22:10.225Z,9.43
2018-07-25T03:24:38.631Z,10.03
2018-07-25T03:27:07.102Z,9.47
2018-07-25T03:29:35.506Z,10.87
2018-07-25T03:32:03.890Z,10.57
2018-07-25T03:34:32.295Z,9.80
2018-07-25T03:37:02.346Z,8.77
2018-07-25T03:39:30.749Z,10.47
2018-07-25T03:41:59.150Z,11.73
2018-07-25T03:44:27.554Z,11.80
2018-07-25T03:46:55.930Z,10.80
2018-07-25T03:49:24.337Z,10.60
2018-07-25T03:51:52.713Z,11.10
2018-07-25T03:54:21.114Z,8.17
2018-07-25T03:56:49.502Z,11.13
2018-07-25T03:59:17.901Z,10.00
2018-07-25T04:01:46.282Z,11.43
2018-07-25T04:04:14.681Z,11.63
2018-07-25T04:06:43.073Z,11.13
2018-07-25T04:09:11.530Z,10.03
2018-07-25T04:11:39.873Z,9.80
2018-07-25T04:14:08.278Z,11.97
2018-07-25T04:16:36.680Z,10.53
2018-07-25T04:19:05.329Z,10.97
2018-07-25T04:21:33.723Z,10.50
2018-07-25T04:24:02.120Z,9.67
2018-07-25T04:26:30.490Z,9.07
2018-07-25T04:28:59.543Z,10.20
2018-07-25T04:31:27.942Z,11.10
2018-07-25T04:33:56.338Z,9.90
2018-07-25T04:36:24.722Z,10.60
2018-07-25T04:38:53.123Z,10.63
2018-07-25T04:41:21.493Z,10.00
2018-07-25T04:43:49.894Z,10.00
2018-07-25T04:46:18.431Z,10.87
2018-07-25T04:48:46.692Z,9.83
2018-07-25T04:51:15.111Z,9.93
2018-07-25T04:53:43.510Z,11.37
2018-07-25T04:56:12.052Z,12.17
2018-07-25T04:58:40.408Z,11.70
2018-07-25T05:01:08.784Z,12.00
2018-07-25T05:03:37.186Z,11.20
2018-07-25T05:06:05.584Z,10.37
2018-07-25T05:08:34.004Z,10.90
2018-07-25T05:11:02.383Z,10.70
2018-07-25T05:13:30.790Z,10.33
2018-07-25T05:15:59.178Z,9.57
2018-07-25T05:18:27.566Z,10.17
2018-07-25T05:20:55.985Z,11.00
2018-07-25T05:23:24.392Z,10.60
2018-07-25T05:25:52.786Z,9.27
2018-07-25T05:28:21.174Z,10.57
2018-07-25T05:30:49.585Z,9.70
2018-07-25T05:33:17.985Z,10.03
2018-07-25T05:35:46.387Z,8.93
2018-07-25T05:38:14.872Z,8.63
2018-07-25T05:40:43.178Z,9.70
2018-07-25T05:43:11.561Z,9.60
2018-07-25T05:45:39.949Z,9.03
2018-07-25T05:48:08.453Z,9.53
2018-07-25T05:50:36.842Z,7.93
2018-07-25T05:53:05.214Z,8.40
2018-07-25T05:55:33.597Z,8.33
2018-07-25T05:58:01.966Z,9.30
2018-07-25T06:00:30.362Z,8.43
2018-07-25T06:02:58.840Z,10.40
2018-07-25T06:05:27.189Z,8.80
2018-07-25T06:07:55.558Z,9.43
2018-07-25T06:10:23.949Z,8.20
2018-07-25T06:12:52.362Z,8.00
2018-07-25T06:15:20.745Z,7.53
2018-07-25T06:17:49.186Z,6.87
2018-07-25T06:20:17.610Z,7.80
2018-07-25T06:22:45.989Z,6.43
2018-07-25T06:25:14.395Z,7.50
2018-07-25T06:27:42.769Z,7.53
2018-07-25T06:30:11.192Z,6.30
2018-07-25T06:32:39.781Z,7.00
2018-07-25T06:35:08.179Z,6.67
2018-07-25T06:37:36.570Z,6.10
2018-07-25T06:40:05.981Z,5.57
2018-07-25T06:42:34.343Z,5.40
2018-07-25T06:45:02.739Z,4.40
2018-07-25T06:47:31.119Z,5.30
2018-07-25T06:49:59.510Z,4.67
2018-07-25T06:52:27.877Z,4.83
2018-07-25T06:54:56.265Z,4.10
2018-07-25T06:57:24.666Z,3.93
2018-07-25T06:59:53.067Z,4.40
2018-07-25T07:02:21.446Z,4.13
2018-07-25T07:04:49.838Z,4.37
2018-07-25T07:07:18.204Z,4.03
2018-07-25T07:09:46.606Z,4.27
2018-07-25T07:12:14.980Z,3.90
2018-07-25T07:14:43.362Z,3.37
2018-07-25T07:17:12.078Z,3.90
2018-07-25T07:19:40.466Z,3.50
2018-07-25T07:22:08.873Z,4.53
2018-07-25T07:24:37.250Z,4.23
2018-07-25T07:27:05.678Z,3.20
2018-07-25T07:29:34.046Z,3.57
2018-07-25T07:32:02.621Z,3.67
2018-07-25T07:34:30.990Z,3.73
2018-07-25T07:36:59.556Z,4.30
2018-07-25T07:39:27.913Z,3.40
2018-07-25T07:41:56.302Z,1.90
2018-07-25T07:44:24.674Z,4.00
2018-07-25T07:46:53.076Z,2.70
2018-07-25T07:49:21.454Z,3.30
2018-07-25T07:51:49.841Z,2.90
2018-07-25T07:54:18.210Z,3.30
2018-07-25T07:56:46.607Z,3.03
2018-07-25T07:59:15.017Z,2.40
2018-07-25T08:01:43.398Z,2.90
2018-07-25T08:04:11.771Z,3.17
2018-07-25T08:06:40.161Z,3.53
2018-07-25T08:09:10.878Z,3.17
2018-07-25T08:11:39.282Z,3.50
2018-07-25T08:14:07.655Z,2.93
2018-07-25T08:16:36.059Z,3.27
2018-07-25T08:19:04.524Z,3.23
2018-07-25T08:21:32.911Z,2.83
2018-07-25T08:24:01.291Z,2.90
2018-07-25T08:26:29.702Z,3.07
2018-07-25T08:28:58.067Z,3.00
2018-07-25T08:31:26.489Z,3.17
2018-07-25T08:33:54.860Z,3.07
2018-07-25T08:36:23.251Z,3.50
2018-07-25T08:38:51.618Z,3.00
2018-07-25T08:41:20.099Z,3.00
2018-07-25T08:43:48.430Z,2.70
2018-07-25T08:46:17.011Z,2.33
2018-07-25T08:48:45.395Z,2.07
2018-07-25T08:51:13.785Z,2.47
2018-07-25T08:53:42.167Z,2.73
2018-07-25T08:56:10.562Z,2.00
2018-07-25T08:58:38.933Z,2.10
2018-07-25T09:01:07.327Z,3.17
2018-07-25T09:03:35.702Z,2.00
2018-07-25T09:06:04.096Z,1.97
2018-07-25T09:08:32.470Z,2.10
2018-07-25T09:11:00.858Z,2.27
2018-07-25T09:13:29.242Z,1.70
2018-07-25T09:15:57.625Z,1.70
2018-07-25T09:18:26.032Z,1.90
2018-07-25T09:20:54.431Z,1.87
2018-07-25T09:23:23.075Z,1.90
2018-07-25T09:25:51.458Z,1.70
2018-07-25T09:28:19.849Z,1.93
2018-07-25T09:30:48.237Z,2.20
2018-07-25T09:33:16.655Z,2.10
2018-07-25T09:35:45.051Z,2.20
2018-07-25T09:38:13.461Z,2.60
2018-07-25T09:40:41.883Z,2.67
2018-07-25T09:43:10.310Z,3.90
2018-07-25T09:45:38.763Z,2.57
2018-07-25T09:48:07.198Z,2.50
2018-07-25T09:50:35.623Z,2.30
2018-07-25T09:53:04.132Z,2.07
2018-07-25T09:55:32.433Z,1.87
2018-07-25T09:58:00.858Z,2.07
2018-07-25T10:00:34.584Z,2.03
2018-07-25T10:03:03.015Z,2.23
2018-07-25T10:05:31.390Z,2.17
2018-07-25T10:07:59.821Z,2.30
2018-07-25T10:10:28.194Z,2.60
2018-07-25T10:12:56.608Z,2.33
2018-07-25T10:15:25.026Z,2.80
2018-07-25T10:17:54.114Z,2.50
2018-07-25T10:20:22.559Z,2.27
2018-07-25T10:22:50.991Z,1.93
2018-07-25T10:25:19.390Z,2.43
2018-07-25T10:27:48.031Z,2.20
2018-07-25T10:30:16.581Z,2.20
2018-07-25T10:32:45.056Z,1.93
2018-07-25T10:35:13.446Z,2.20
2018-07-25T10:37:41.911Z,2.60
2018-07-25T10:40:10.315Z,2.57
2018-07-25T10:42:38.760Z,2.80
2018-07-25T10:45:08.499Z,5.90
2018-07-25T10:47:36.953Z,3.63
2018-07-25T10:50:06.167Z,2.83
2018-07-25T10:52:34.615Z,2.50
2018-07-25T10:55:03.059Z,2.10
2018-07-25T10:57:31.746Z,1.90
2018-07-25T11:00:00.131Z,2.47
2018-07-25T11:02:28.550Z,2.93
2018-07-25T11:04:56.965Z,2.67
2018-07-25T11:07:25.393Z,2.63
2018-07-25T11:09:53.803Z,2.60
2018-07-25T11:12:22.530Z,2.50
2018-07-25T11:14:50.919Z,2.90
2018-07-25T11:17:19.325Z,2.83
2018-07-25T11:19:50.842Z,2.00
2018-07-25T11:22:19.262Z,2.30
2018-07-25T11:24:47.649Z,2.30
2018-07-25T11:27:16.036Z,2.30
2018-07-25T11:29:44.445Z,2.00
2018-07-25T11:32:12.906Z,3.03
2018-07-25T11:34:41.421Z,2.30
2018-07-25T11:37:09.896Z,2.27
2018-07-25T11:39:38.287Z,2.80
2018-07-25T11:42:06.663Z,2.20
2018-07-25T11:44:35.059Z,2.13
2018-07-25T11:47:03.429Z,2.27
2018-07-25T11:49:31.819Z,2.03
2018-07-25T11:52:00.187Z,1.97
2018-07-25T11:54:28.582Z,1.80
2018-07-25T11:56:56.948Z,4.30
2018-07-25T11:59:25.377Z,4.27
2018-07-25T12:01:53.866Z,3.40
2018-07-25T12:04:22.321Z,2.43
2018-07-25T12:06:50.702Z,1.67
2018-07-25T12:09:19.106Z,1.80
2018-07-25T12:11:48.202Z,1.97
2018-07-25T12:14:18.045Z,1.83
2018-07-25T12:16:46.451Z,1.63
2018-07-25T12:19:15.109Z,2.40
2018-07-25T12:21:43.493Z,2.00
2018-07-25T12:24:11.914Z,2.23
2018-07-25T12:26:40.419Z,1.97
2018-07-25T12:29:08.730Z,2.33
2018-07-25T12:31:37.130Z,2.00
2018-07-25T12:34:05.747Z,1.80
2018-07-25T12:36:34.146Z,1.70
2018-07-25T12:39:02.554Z,1.60
2018-07-25T12:41:30.951Z,1.63
2018-07-25T12:43:59.381Z,2.00
2018-07-25T12:46:27.775Z,1.40
2018-07-25T12:48:56.194Z,1.70
2018-07-25T12:51:24.638Z,1.97
2018-07-25T12:53:53.070Z,3.33
2018-07-25T12:56:21.462Z,1.90
2018-07-25T12:58:49.887Z,2.47
2018-07-25T13:01:18.310Z,2.30
2018-07-25T13:03:46.738Z,1.70
2018-07-25T13:06:15.113Z,1.90
2018-07-25T13:08:43.614Z,1.63
2018-07-25T13:11:11.994Z,1.53
2018-07-25T13:13:40.402Z,2.03
2018-07-25T13:16:08.786Z,1.80
2018-07-25T13:18:37.206Z,2.00
2018-07-25T13:21:05.629Z,1.50
2018-07-25T13:23:34.057Z,1.80
2018-07-25T13:26:02.471Z,1.77
2018-07-25T13:28:30.915Z,1.70
2018-07-25T13:30:59.346Z,2.00
2018-07-25T13:33:27.738Z,1.60
2018-07-25T13:35:56.204Z,1.77
2018-07-25T13:38:24.575Z,1.60
2018-07-25T13:40:53.024Z,2.20
2018-07-25T13:43:21.459Z,1.80
2018-07-25T13:45:49.928Z,2.07
2018-07-25T13:48:18.291Z,1.97
2018-07-25T13:50:46.713Z,1.70
2018-07-25T13:53:15.113Z,1.60
2018-07-25T13:55:43.537Z,1.70
2018-07-25T13:58:11.925Z,1.70
2018-07-25T14:00:40.353Z,2.27
2018-07-25T14:03:08.754Z,1.73
2018-07-25T14:05:37.170Z,1.67
2018-07-25T14:08:05.851Z,2.23
2018-07-25T14:10:34.262Z,1.83
2018-07-25T14:13:02.671Z,2.00
2018-07-25T14:15:31.098Z,1.67
2018-07-25T14:17:59.553Z,1.90
2018-07-25T14:20:27.974Z,2.43
2018-07-25T14:22:56.367Z,2.20
2018-07-25T14:25:25.111Z,1.60
2018-07-25T14:27:53.511Z,1.93
2018-07-25T14:30:22.115Z,2.30
2018-07-25T14:32:50.437Z,2.30
2018-07-25T14:35:18.850Z,1.63
2018-07-25T14:37:52.237Z,1.70
2018-07-25T14:40:20.759Z,2.27
2018-07-25T14:42:49.046Z,2.00
2018-07-25T14:45:17.455Z,2.00
2018-07-25T14:47:45.843Z,2.37
2018-07-25T14:50:14.353Z,2.20
2018-07-25T14:52:42.753Z,2.20
2018-07-25T14:55:11.175Z,1.90
2018-07-25T14:57:39.566Z,2.03
2018-07-25T15:00:07.999Z,2.00
2018-07-25T15:02:36.623Z,1.70
2018-07-25T15:05:05.559Z,2.07
2018-07-25T15:07:33.988Z,1.90
2018-07-25T15:10:02.385Z,1.80
2018-07-25T15:12:36.093Z,1.90
2018-07-25T15:15:05.138Z,2.07
2018-07-25T15:17:33.633Z,1.80
2018-07-25T15:20:02.070Z,1.93
2018-07-25T15:22:30.466Z,2.23
2018-07-25T15:24:58.895Z,1.87
2018-07-25T15:27:27.290Z,1.70
2018-07-25T15:29:55.711Z,2.20
2018-07-25T15:32:24.127Z,2.03
2018-07-25T15:34:52.554Z,1.60
2018-07-25T15:37:20.979Z,1.87
2018-07-25T15:39:49.404Z,1.73
2018-07-25T15:42:17.838Z,2.30
2018-07-25T15:44:46.274Z,1.87
2018-07-25T15:47:14.698Z,2.60
2018-07-25T15:49:43.102Z,1.87
2018-07-25T15:52:11.528Z,1.97
2018-07-25T15:54:39.914Z,1.80
2018-07-25T15:57:08.410Z,2.07
2018-07-25T15:59:36.818Z,2.17
2018-07-25T16:02:05.239Z,2.17
2018-07-25T16:04:33.635Z,2.10
2018-07-25T16:07:02.053Z,2.93
2018-07-25T16:09:30.450Z,3.00
2018-07-25T16:11:58.904Z,2.60
2018-07-25T16:14:27.310Z,3.47
2018-07-25T16:16:55.751Z,3.90
2018-07-25T16:19:24.149Z,2.67
2018-07-25T16:21:52.575Z,3.03
2018-07-25T16:24:20.975Z,2.80
2018-07-25T16:26:49.377Z,2.73
2018-07-25T16:29:17.766Z,2.80
2018-07-25T16:31:46.189Z,2.33
2018-07-25T16:34:14.592Z,2.60
2018-07-25T16:36:43.023Z,3.17
2018-07-25T16:39:14.539Z,2.90
2018-07-25T16:41:42.970Z,2.50
2018-07-25T16:44:11.602Z,2.60
2018-07-25T16:46:40.110Z,3.27
2018-07-25T16:49:08.669Z,3.03
2018-07-25T16:51:37.103Z,2.73
2018-07-25T16:54:05.550Z,2.73
2018-07-25T16:56:33.995Z,2.47
2018-07-25T16:59:02.367Z,2.20
2018-07-25T17:01:30.786Z,1.70
2018-07-25T17:03:59.181Z,2.10
2018-07-25T17:06:27.613Z,2.20
2018-07-25T17:08:56.007Z,2.73
2018-07-25T17:11:24.421Z,1.93
2018-07-25T17:13:52.815Z,2.30
2018-07-25T17:16:21.218Z,1.90
2018-07-25T17:18:49.615Z,1.97
2018-07-25T17:21:18.055Z,2.00
2018-07-25T17:23:46.439Z,2.03
2018-07-25T17:26:14.854Z,2.00
2018-07-25T17:28:43.246Z,2.13
2018-07-25T17:31:11.661Z,2.07
2018-07-25T17:33:40.064Z,2.60
2018-07-25T17:36:08.531Z,2.33
2018-07-25T17:38:36.931Z,1.90
2018-07-25T17:41:05.371Z,1.87
2018-07-25T17:43:33.786Z,2.07
2018-07-25T17:46:02.258Z,2.43
2018-07-25T17:48:30.683Z,2.50
2018-07-25T17:50:59.087Z,2.23
2018-07-25T17:53:27.525Z,2.00
2018-07-25T17:55:56.017Z,2.53
2018-07-25T17:58:24.439Z,2.70
2018-07-25T18:00:52.834Z,3.07
2018-07-25T18:03:21.268Z,3.20
2018-07-25T18:05:49.654Z,2.77
2018-07-25T18:08:18.063Z,3.10
2018-07-25T18:10:46.474Z,3.37
2018-07-25T18:13:20.334Z,2.73
2018-07-25T18:15:48.736Z,2.70
2018-07-25T18:18:17.129Z,2.50
2018-07-25T18:20:45.550Z,1.97
2018-07-25T18:23:13.974Z,2.50
2018-07-25T18:25:42.370Z,2.43
2018-07-25T18:28:10.791Z,2.80
2018-07-25T18:30:39.190Z,2.20
2018-07-25T18:33:07.702Z,2.63
2018-07-25T18:35:36.179Z,2.37
2018-07-25T18:38:04.742Z,3.37
2018-07-25T18:40:33.156Z,2.07
2018-07-25T18:43:01.586Z,2.80
2018-07-25T18:45:29.988Z,2.30
2018-07-25T18:47:58.413Z,2.60
2018-07-25T18:50:26.910Z,2.33
2018-07-25T18:52:55.333Z,2.50
2018-07-25T18:55:23.713Z,2.53
2018-07-25T18:57:52.127Z,1.73
2018-07-25T19:00:20.493Z,2.03
2018-07-25T19:02:48.890Z,2.80
2018-07-25T19:05:17.294Z,2.50
2018-07-25T19:07:45.713Z,2.70
2018-07-25T19:10:14.090Z,2.00
2018-07-25T19:12:42.469Z,1.93
2018-07-25T19:15:16.125Z,2.13
2018-07-25T19:17:44.509Z,2.23
2018-07-25T19:20:12.902Z,2.30
2018-07-25T19:22:41.290Z,2.40
2018-07-25T19:25:09.668Z,2.40
2018-07-25T19:27:38.058Z,1.83
2018-07-25T19:30:06.470Z,2.70
2018-07-25T19:32:34.863Z,2.40
2018-07-25T19:35:03.282Z,2.50
2018-07-25T19:37:31.670Z,2.30
2018-07-25T19:40:00.034Z,2.33
2018-07-25T19:42:28.435Z,2.67
2018-07-25T19:44:56.811Z,2.80
2018-07-25T19:47:25.177Z,2.63
2018-07-25T19:49:53.565Z,2.17
2018-07-25T19:52:21.946Z,2.20
2018-07-25T19:54:50.334Z,2.53
2018-07-25T19:57:18.728Z,2.70
2018-07-25T19:59:47.122Z,2.50
2018-07-25T20:02:15.566Z,3.87
2018-07-25T20:04:43.958Z,2.43
2018-07-25T20:07:12.331Z,3.50
2018-07-25T20:09:40.735Z,4.07
2018-07-25T20:12:09.121Z,4.00
2018-07-25T20:14:42.743Z,4.10
2018-07-25T20:17:11.114Z,3.43
2018-07-25T20:19:39.525Z,3.53
2018-07-25T20:22:07.917Z,2.80
2018-07-25T20:24:36.306Z,3.50
2018-07-25T20:27:04.690Z,3.00
2018-07-25T20:29:33.137Z,3.17
2018-07-25T20:32:01.511Z,3.70
2018-07-25T20:34:29.902Z,2.87
2018-07-25T20:36:58.270Z,3.00
2018-07-25T20:39:26.662Z,4.07
2018-07-25T20:41:55.026Z,4.13
2018-07-25T20:44:23.433Z,3.90
2018-07-25T20:46:51.806Z,4.40
2018-07-25T20:49:20.193Z,3.37
2018-07-25T20:51:48.571Z,3.13
2018-07-25T20:54:16.961Z,4.00
2018-07-25T20:56:45.335Z,3.40
2018-07-25T20:59:13.777Z,3.43
2018-07-25T21:01:42.141Z,3.63
2018-07-25T21:04:10.546Z,3.83
2018-07-25T21:06:38.926Z,3.10
2018-07-25T21:09:08.354Z,4.40
2018-07-25T21:11:36.754Z,3.40
2018-07-25T21:14:05.168Z,3.87
2018-07-25T21:16:33.546Z,3.93
2018-07-25T21:19:01.934Z,3.47
2018-07-25T21:21:30.326Z,3.43
2018-07-25T21:23:58.724Z,3.43
2018-07-25T21:26:27.094Z,4.30
2018-07-25T21:28:55.490Z,3.40
2018-07-25T21:31:23.857Z,4.00
2018-07-25T21:33:52.247Z,3.23
2018-07-25T21:36:20.614Z,3.67
2018-07-25T21:38:49.005Z,3.80
2018-07-25T21:41:17.370Z,3.83
2018-07-25T21:43:45.766Z,4.70
2018-07-25T21:46:14.133Z,3.83
2018-07-25T21:48:42.501Z,4.10
2018-07-25T21:51:10.900Z,3.90
2018-07-25T21:53:39.273Z,3.87
2018-07-25T21:56:07.670Z,4.07
2018-07-25T21:58:36.042Z,3.80
2018-07-25T22:01:10.627Z,3.83
2018-07-25T22:03:39.125Z,3.90
2018-07-25T22:06:07.531Z,4.13
2018-07-25T22:08:36.073Z,4.40
2018-07-25T22:11:04.461Z,4.10
2018-07-25T22:13:33.041Z,4.37
2018-07-25T22:16:01.653Z,4.00
2018-07-25T22:18:30.027Z,4.03
2018-07-25T22:20:58.450Z,3.80
2018-07-25T22:23:26.821Z,3.87
2018-07-25T22:25:55.225Z,4.70
2018-07-25T22:28:23.597Z,3.90
2018-07-25T22:30:52.001Z,4.80
2018-07-25T22:33:20.378Z,4.63
2018-07-25T22:35:48.767Z,4.33
2018-07-25T22:38:17.138Z,3.90
2018-07-25T22:40:45.534Z,4.07
2018-07-25T22:43:13.906Z,3.90
2018-07-25T22:45:42.302Z,4.50
2018-07-25T22:48:10.706Z,4.23
2018-07-25T22:50:39.226Z,4.40
2018-07-25T22:53:07.638Z,4.77
2018-07-25T22:55:36.093Z,4.60
2018-07-25T22:58:04.830Z,4.53
2018-07-25T23:00:33.222Z,4.63
2018-07-25T23:03:01.595Z,4.40
2018-07-25T23:05:29.985Z,4.10
2018-07-25T23:07:58.378Z,4.27
2018-07-25T23:10:26.826Z,4.77
2018-07-25T23:12:55.206Z,4.50
2018-07-25T23:15:23.614Z,3.80
2018-07-25T23:17:52.230Z,4.80
2018-07-25T23:20:20.650Z,4.70
2018-07-25T23:22:54.106Z,4.33
2018-07-25T23:25:22.510Z,4.90
2018-07-25T23:27:51.179Z,5.20
2018-07-25T23:30:19.882Z,5.70
2018-07-25T23:32:48.846Z,4.57
2018-07-25T23:35:17.246Z,6.20
2018-07-25T23:37:45.809Z,4.90
2018-07-25T23:40:14.218Z,5.90
2018-07-25T23:42:42.586Z,5.20
2018-07-25T23:45:10.981Z,5.40
2018-07-25T23:47:39.359Z,5.33
2018-07-25T23:50:07.775Z,4.70
2018-07-25T23:52:36.170Z,6.63
2018-07-25T23:55:04.762Z,5.20
2018-07-25T23:57:33.150Z,5.10
